createdAt,value
2022-09-21T00:01:24.963Z,4.88
2022-09-21T00:06:21.164Z,4.72
2022-09-21T00:08:48.563Z,3.45
2022-09-21T00:11:18.447Z,3.83
2022-09-21T00:13:46.955Z,4.22
2022-09-21T00:16:16.093Z,3.97
2022-09-21T00:18:43.844Z,4.25
2022-09-21T00:21:13.482Z,3.85
2022-09-21T00:23:41.405Z,4.72
2022-09-21T00:26:20.520Z,4.75
2022-09-21T00:28:53.719Z,4.83
2022-09-21T00:31:21.343Z,4.30
2022-09-21T00:33:48.396Z,5.03
2022-09-21T00:36:17.302Z,4.60
2022-09-21T00:38:46.411Z,3.92
2022-09-21T00:41:13.440Z,4.70
2022-09-21T00:43:46.028Z,4.47
2022-09-21T00:46:30.272Z,4.13
2022-09-21T00:48:58.574Z,4.03
2022-09-21T00:51:26.235Z,4.75
2022-09-21T00:54:00.002Z,4.05
2022-09-21T00:56:30.915Z,4.53
2022-09-21T00:58:58.525Z,4.10
2022-09-21T01:01:34.612Z,4.10
2022-09-21T01:04:01.964Z,3.70
2022-09-21T01:06:29.038Z,4.05
2022-09-21T01:08:59.249Z,7.40
2022-09-21T01:11:30.619Z,4.18
2022-09-21T01:14:00.286Z,3.97
2022-09-21T01:16:33.644Z,4.20
2022-09-21T01:19:06.592Z,3.90
2022-09-21T01:21:40.334Z,4.38
2022-09-21T01:24:07.230Z,4.47
2022-09-21T01:26:51.948Z,4.32
2022-09-21T01:29:41.308Z,4.85
2022-09-21T01:32:21.116Z,4.18
2022-09-21T01:35:10.702Z,4.57
2022-09-21T01:37:52.665Z,5.13
2022-09-21T01:40:25.356Z,4.88
2022-09-21T01:42:56.083Z,4.85
2022-09-21T01:45:34.911Z,4.90
2022-09-21T01:48:02.273Z,5.25
2022-09-21T01:50:35.250Z,5.03
2022-09-21T01:53:15.700Z,5.47
2022-09-21T01:56:32.388Z,5.38
2022-09-21T01:59:11.508Z,4.70
2022-09-21T02:01:44.617Z,4.93
2022-09-21T02:04:13.853Z,5.45
2022-09-21T02:06:45.050Z,4.95
2022-09-21T02:09:12.721Z,4.90
2022-09-21T02:11:42.658Z,4.75
2022-09-21T02:14:18.286Z,5.18
2022-09-21T02:17:12.662Z,5.05
2022-09-21T02:20:05.111Z,5.22
2022-09-21T02:22:50.731Z,5.80
2022-09-21T02:26:06.773Z,5.35
2022-09-21T02:28:41.283Z,5.35
2022-09-21T02:31:14.068Z,5.57
2022-09-21T02:34:05.435Z,5.70
2022-09-21T02:36:46.847Z,5.32
2022-09-21T02:39:39.191Z,5.07
2022-09-21T02:42:13.122Z,5.65
2022-09-21T02:44:46.816Z,4.85
2022-09-21T02:47:34.579Z,5.05
2022-09-21T02:50:06.638Z,5.50
2022-09-21T02:52:35.776Z,5.13
2022-09-21T02:55:05.110Z,5.40
2022-09-21T02:57:32.180Z,5.93
2022-09-21T02:59:59.202Z,5.25
2022-09-21T03:02:37.094Z,5.10
2022-09-21T03:05:04.453Z,5.47
2022-09-21T03:07:32.390Z,6.00
2022-09-21T03:09:59.432Z,6.03
2022-09-21T03:12:26.984Z,5.60
2022-09-21T03:14:54.029Z,6.07
2022-09-21T03:17:21.080Z,5.80
2022-09-21T03:19:48.196Z,5.10
2022-09-21T03:22:15.100Z,5.82
2022-09-21T03:24:48.110Z,5.30
2022-09-21T03:27:17.609Z,6.13
2022-09-21T03:29:45.398Z,6.15
2022-09-21T03:32:12.377Z,6.13
2022-09-21T03:34:39.309Z,5.47
2022-09-21T03:37:08.417Z,6.35
2022-09-21T03:39:35.599Z,5.80
2022-09-21T03:42:02.786Z,5.97
2022-09-21T03:44:29.863Z,5.90
2022-09-21T03:46:58.209Z,5.07
2022-09-21T03:49:25.576Z,5.03
2022-09-21T03:51:52.503Z,5.20
2022-09-21T03:54:19.704Z,4.82
2022-09-21T03:56:46.707Z,5.20
2022-09-21T03:59:14.485Z,4.75
2022-09-21T04:01:42.472Z,4.63
2022-09-21T04:04:10.393Z,5.25
2022-09-21T04:06:37.341Z,5.20
2022-09-21T04:09:04.431Z,5.32
2022-09-21T04:11:33.456Z,4.30
2022-09-21T04:14:00.474Z,4.82
2022-09-21T04:16:28.481Z,4.75
2022-09-21T04:18:55.508Z,4.90
2022-09-21T04:21:22.997Z,4.78
2022-09-21T04:23:50.528Z,5.32
2022-09-21T04:26:21.224Z,4.88
2022-09-21T04:28:48.187Z,5.03
2022-09-21T04:31:15.152Z,5.05
2022-09-21T04:33:42.102Z,5.80
2022-09-21T04:36:09.025Z,5.38
2022-09-21T04:38:36.149Z,5.32
2022-09-21T04:41:03.575Z,6.00
2022-09-21T04:43:30.598Z,5.82
2022-09-21T04:45:57.580Z,5.85
2022-09-21T04:48:24.928Z,5.65
2022-09-21T04:50:51.911Z,5.43
2022-09-21T04:53:19.017Z,5.53
2022-09-21T04:55:46.542Z,5.45
2022-09-21T04:58:13.563Z,5.63
2022-09-21T05:00:40.519Z,5.72
2022-09-21T05:03:07.630Z,6.30
2022-09-21T05:05:34.549Z,6.03
2022-09-21T05:08:01.742Z,5.60
2022-09-21T05:10:28.663Z,5.18
2022-09-21T05:12:55.695Z,5.93
2022-09-21T05:15:22.720Z,5.90
2022-09-21T05:17:49.797Z,6.10
2022-09-21T05:20:16.755Z,5.50
2022-09-21T05:22:43.999Z,5.68
2022-09-21T05:25:11.073Z,5.70
2022-09-21T05:27:38.057Z,5.47
2022-09-21T05:30:06.291Z,5.72
2022-09-21T05:32:49.725Z,5.50
2022-09-21T05:35:29.199Z,5.85
2022-09-21T05:38:04.368Z,5.72
2022-09-21T05:40:31.722Z,5.50
2022-09-21T05:42:59.130Z,4.70
2022-09-21T05:45:28.911Z,5.10
2022-09-21T05:48:01.914Z,5.57
2022-09-21T05:51:05.719Z,5.50
2022-09-21T05:54:00.629Z,6.30
2022-09-21T05:56:44.122Z,6.00
2022-09-21T05:59:41.679Z,6.18
2022-09-21T06:02:25.748Z,6.07
2022-09-21T06:04:56.567Z,5.90
2022-09-21T06:07:23.846Z,5.72
2022-09-21T06:09:50.785Z,5.22
2022-09-21T06:12:17.946Z,5.82
2022-09-21T06:14:44.941Z,5.40
2022-09-21T06:17:12.040Z,5.30
2022-09-21T06:19:39.066Z,5.80
2022-09-21T06:22:06.208Z,5.97
2022-09-21T06:24:33.267Z,5.32
2022-09-21T06:27:00.428Z,6.25
2022-09-21T06:29:27.417Z,5.68
2022-09-21T06:31:54.445Z,5.53
2022-09-21T06:34:21.456Z,5.80
2022-09-21T06:36:48.528Z,6.00
2022-09-21T06:39:15.608Z,5.78
2022-09-21T06:41:42.654Z,6.25
2022-09-21T06:44:10.625Z,5.90
2022-09-21T06:46:37.634Z,6.07
2022-09-21T06:49:04.710Z,5.70
2022-09-21T06:51:31.842Z,6.10
2022-09-21T06:53:59.688Z,5.63
2022-09-21T06:56:27.627Z,5.13
2022-09-21T06:58:55.739Z,5.78
2022-09-21T07:01:23.289Z,5.72
2022-09-21T07:03:51.982Z,5.18
2022-09-21T07:06:19.199Z,5.38
2022-09-21T07:11:41.969Z,6.38
2022-09-21T07:14:09.116Z,4.68
2022-09-21T07:16:36.227Z,4.90
2022-09-21T07:19:11.165Z,5.50
2022-09-21T07:21:38.709Z,6.40
2022-09-21T07:24:11.056Z,5.35
2022-09-21T07:26:39.387Z,5.15
2022-09-21T07:29:06.554Z,4.90
2022-09-21T07:31:33.714Z,5.95
2022-09-21T07:34:01.084Z,6.90
2022-09-21T07:36:28.223Z,4.97
2022-09-21T07:38:55.213Z,5.30
2022-09-21T07:41:23.313Z,6.55
2022-09-21T07:43:50.605Z,7.68
2022-09-21T07:46:17.657Z,6.05
2022-09-21T07:48:44.741Z,6.25
2022-09-21T07:51:13.541Z,5.15
2022-09-21T07:53:42.545Z,7.22
2022-09-21T07:56:17.671Z,4.93
2022-09-21T07:59:03.372Z,4.07
2022-09-21T08:01:31.229Z,3.65
2022-09-21T08:03:59.220Z,4.03
2022-09-21T08:06:28.240Z,3.83
2022-09-21T08:08:58.029Z,4.93
2022-09-21T08:11:27.617Z,4.47
2022-09-21T08:14:01.014Z,5.25
2022-09-21T08:16:30.493Z,4.60
2022-09-21T08:18:57.687Z,5.38
2022-09-21T08:21:27.894Z,4.30
2022-09-21T08:23:54.929Z,4.53
2022-09-21T08:26:23.947Z,4.05
2022-09-21T08:28:53.698Z,3.92
2022-09-21T08:31:22.343Z,3.22
2022-09-21T08:33:50.260Z,3.95
2022-09-21T08:36:18.684Z,3.55
2022-09-21T08:38:45.800Z,4.15
2022-09-21T08:41:37.046Z,4.05
2022-09-21T08:44:13.458Z,4.28
2022-09-21T08:46:42.609Z,3.45
2022-09-21T08:49:23.298Z,5.32
2022-09-21T08:51:55.964Z,3.53
2022-09-21T08:54:35.194Z,3.92
2022-09-21T08:57:05.330Z,4.43
2022-09-21T08:59:34.563Z,6.85
2022-09-21T09:02:31.731Z,4.15
2022-09-21T09:05:07.889Z,3.60
2022-09-21T09:07:50.475Z,3.67
2022-09-21T09:10:37.056Z,3.75
2022-09-21T09:13:16.913Z,3.50
2022-09-21T09:18:48.437Z,4.68
2022-09-21T09:21:41.834Z,3.90
2022-09-21T09:24:33.852Z,4.07
2022-09-21T09:27:15.243Z,3.38
2022-09-21T09:30:03.580Z,5.10
2022-09-21T09:32:51.221Z,3.53
2022-09-21T09:35:24.283Z,3.90
2022-09-21T09:37:55.233Z,4.63
2022-09-21T09:40:38.776Z,3.78
2022-09-21T09:43:41.151Z,4.00
2022-09-21T09:46:37.475Z,4.45
2022-09-21T09:49:40.576Z,3.72
2022-09-21T09:52:12.472Z,4.03
2022-09-21T09:54:39.516Z,3.50
2022-09-21T09:57:07.831Z,3.47
2022-09-21T09:59:55.437Z,4.45
2022-09-21T10:02:27.706Z,3.88
2022-09-21T10:05:09.044Z,4.10
2022-09-21T10:07:46.176Z,3.28
2022-09-21T10:10:37.171Z,3.60
2022-09-21T10:13:12.717Z,7.38
2022-09-21T10:15:50.079Z,3.83
2022-09-21T10:18:21.536Z,3.53
2022-09-21T10:20:57.810Z,3.83
2022-09-21T10:23:28.534Z,6.65
2022-09-21T10:26:02.962Z,4.25
2022-09-21T10:28:31.240Z,3.70
2022-09-21T10:31:26.942Z,5.05
2022-09-21T10:34:14.657Z,5.00
2022-09-21T10:36:50.551Z,3.50
2022-09-21T10:39:20.489Z,3.97
2022-09-21T10:41:50.172Z,3.90
2022-09-21T10:44:19.872Z,4.40
2022-09-21T10:46:49.121Z,4.05
2022-09-21T10:49:29.568Z,4.15
2022-09-21T10:51:58.998Z,4.28
2022-09-21T10:54:30.270Z,3.55
2022-09-21T10:57:09.553Z,4.40
2022-09-21T10:59:37.630Z,3.88
2022-09-21T11:02:33.412Z,4.45
2022-09-21T11:05:07.536Z,4.15
2022-09-21T11:07:47.741Z,4.07
2022-09-21T11:10:36.195Z,3.80
2022-09-21T11:13:26.126Z,4.32
2022-09-21T11:16:12.153Z,3.80
2022-09-21T11:18:58.181Z,3.17
2022-09-21T11:21:25.134Z,3.45
2022-09-21T11:24:29.808Z,4.03
2022-09-21T11:27:18.993Z,6.43
2022-09-21T11:30:03.722Z,3.50
2022-09-21T11:32:40.555Z,4.00
2022-09-21T11:35:47.483Z,3.83
2022-09-21T11:38:23.026Z,3.90
2022-09-21T11:41:44.397Z,3.60
2022-09-21T11:44:20.312Z,3.92
2022-09-21T11:47:27.674Z,3.13
2022-09-21T11:50:29.854Z,3.90
2022-09-21T11:53:34.949Z,3.65
2022-09-21T11:56:07.668Z,3.63
2022-09-21T11:58:53.076Z,3.97
2022-09-21T12:01:43.856Z,4.00
2022-09-21T12:04:47.782Z,3.65
2022-09-21T12:08:01.227Z,4.45
2022-09-21T12:11:16.896Z,3.83
2022-09-21T12:14:15.456Z,3.10
2022-09-21T12:17:06.076Z,4.15
2022-09-21T12:19:56.520Z,3.80
2022-09-21T12:22:37.220Z,3.97
2022-09-21T12:25:45.755Z,3.30
2022-09-21T12:28:18.301Z,3.55
2022-09-21T12:30:53.895Z,3.83
2022-09-21T12:33:45.417Z,3.90
2022-09-21T12:36:24.485Z,3.42
2022-09-21T12:39:27.008Z,3.75
2022-09-21T12:41:56.838Z,3.75
2022-09-21T12:47:10.424Z,3.53
2022-09-21T12:49:43.340Z,4.05
2022-09-21T12:52:18.781Z,3.97
2022-09-21T12:55:18.329Z,3.95
2022-09-21T12:58:10.943Z,4.55
2022-09-21T13:00:54.020Z,3.30
2022-09-21T13:04:08.874Z,4.00
2022-09-21T13:06:47.853Z,3.88
2022-09-21T13:09:20.046Z,3.80
2022-09-21T13:12:19.095Z,3.35
2022-09-21T13:14:51.981Z,3.80
2022-09-21T13:17:30.280Z,4.05
2022-09-21T13:20:17.282Z,3.75
2022-09-21T13:22:45.614Z,3.33
2022-09-21T13:25:15.417Z,3.38
2022-09-21T13:30:44.558Z,3.83
2022-09-21T13:33:20.738Z,3.28
2022-09-21T13:35:50.527Z,3.70
2022-09-21T13:38:45.352Z,4.35
2022-09-21T13:41:18.147Z,3.53
2022-09-21T13:44:01.235Z,3.55
2022-09-21T13:46:37.211Z,3.40
2022-09-21T13:49:10.583Z,3.72
2022-09-21T13:52:06.175Z,4.13
2022-09-21T13:54:39.097Z,3.78
2022-09-21T13:57:21.453Z,3.50
2022-09-21T14:00:07.390Z,3.10
2022-09-21T14:02:39.340Z,3.20
2022-09-21T14:05:27.483Z,3.80
2022-09-21T14:08:02.903Z,3.75
2022-09-21T14:10:32.539Z,3.80
2022-09-21T14:13:01.764Z,4.30
2022-09-21T14:15:39.924Z,4.07
2022-09-21T14:18:17.142Z,4.72
2022-09-21T14:21:09.753Z,3.97
2022-09-21T14:23:39.644Z,3.60
2022-09-21T14:29:50.403Z,3.85
2022-09-21T14:32:23.535Z,4.18
2022-09-21T14:34:57.294Z,3.35
2022-09-21T14:37:37.940Z,3.67
2022-09-21T14:40:19.896Z,3.53
2022-09-21T14:42:47.780Z,4.10
2022-09-21T14:45:19.935Z,3.08
2022-09-21T14:47:55.695Z,3.83
2022-09-21T14:50:30.129Z,3.15
2022-09-21T14:53:32.712Z,3.15
2022-09-21T14:56:12.057Z,3.28
2022-09-21T14:59:01.087Z,3.75
2022-09-21T15:01:37.506Z,3.83
2022-09-21T15:04:46.073Z,4.18
2022-09-21T15:07:41.322Z,3.47
2022-09-21T15:10:45.274Z,3.65
2022-09-21T15:13:41.767Z,3.55
2022-09-21T15:16:43.418Z,3.63
2022-09-21T15:19:29.897Z,3.47
2022-09-21T15:22:15.759Z,3.92
2022-09-21T15:24:57.194Z,3.55
2022-09-21T15:27:33.760Z,4.13
2022-09-21T15:30:06.324Z,3.58
2022-09-21T15:32:48.515Z,3.92
2022-09-21T15:35:21.828Z,3.90
2022-09-21T15:37:51.065Z,3.95
2022-09-21T15:40:20.830Z,3.85
2022-09-21T15:45:46.891Z,4.70
2022-09-21T15:48:14.531Z,4.25
2022-09-21T15:50:43.268Z,3.80
2022-09-21T15:53:21.972Z,4.28
2022-09-21T15:55:49.820Z,3.63
2022-09-21T15:58:37.661Z,3.50
2022-09-21T16:01:15.661Z,4.15
2022-09-21T16:03:45.530Z,3.88
2022-09-21T16:08:45.866Z,3.25
2022-09-21T16:11:13.355Z,4.13
2022-09-21T16:14:32.078Z,3.13
2022-09-21T16:17:13.866Z,3.60
2022-09-21T16:19:56.905Z,3.67
2022-09-21T16:22:29.944Z,3.33
2022-09-21T16:25:01.633Z,3.40
2022-09-21T16:27:32.389Z,4.53
2022-09-21T16:30:01.322Z,5.03
2022-09-21T16:32:32.991Z,3.77
2022-09-21T16:35:27.450Z,3.95
2022-09-21T16:37:58.976Z,4.25
2022-09-21T16:40:27.691Z,3.83
2022-09-21T16:42:59.053Z,4.13
2022-09-21T16:45:31.953Z,4.32
2022-09-21T16:47:59.942Z,4.57
2022-09-21T16:50:27.257Z,4.10
2022-09-21T16:52:54.295Z,4.25
2022-09-21T16:55:25.518Z,4.25
2022-09-21T16:57:55.393Z,4.97
2022-09-21T17:00:22.746Z,4.90
2022-09-21T17:02:49.793Z,4.15
2022-09-21T17:05:19.510Z,4.70
2022-09-21T17:07:57.241Z,4.63
2022-09-21T17:10:29.319Z,3.85
2022-09-21T17:12:57.008Z,4.60
2022-09-21T17:15:25.136Z,4.10
2022-09-21T17:17:52.214Z,4.57
2022-09-21T17:20:28.344Z,4.90
2022-09-21T17:22:56.284Z,4.28
2022-09-21T17:25:23.233Z,4.55
2022-09-21T17:27:52.862Z,6.97
2022-09-21T17:30:21.315Z,5.30
2022-09-21T17:32:49.344Z,4.72
2022-09-21T17:35:18.996Z,4.95
2022-09-21T17:37:46.168Z,7.50
2022-09-21T17:40:14.120Z,6.63
2022-09-21T17:42:48.719Z,5.32
2022-09-21T17:45:56.297Z,4.75
2022-09-21T17:48:23.719Z,4.13
2022-09-21T17:53:38.371Z,5.00
2022-09-21T17:56:25.905Z,5.85
2022-09-21T17:59:01.694Z,4.28
2022-09-21T18:01:33.994Z,4.07
2022-09-21T18:04:01.451Z,4.10
2022-09-21T18:06:29.256Z,5.28
2022-09-21T18:08:57.563Z,5.10
2022-09-21T18:11:27.381Z,5.60
2022-09-21T18:14:17.540Z,4.95
2022-09-21T18:17:04.691Z,9.23
2022-09-21T18:20:08.781Z,5.65
2022-09-21T18:23:16.144Z,6.38
2022-09-21T18:25:48.075Z,5.65
2022-09-21T18:28:26.821Z,5.38
2022-09-21T18:31:18.925Z,6.90
2022-09-21T18:33:45.898Z,6.53
2022-09-21T18:36:28.572Z,5.10
2022-09-21T18:39:28.544Z,5.47
2022-09-21T18:44:49.743Z,5.78
2022-09-21T18:47:28.094Z,5.45
2022-09-21T18:50:03.607Z,5.15
2022-09-21T18:52:51.596Z,5.45
2022-09-21T18:55:28.432Z,11.13
2022-09-21T18:57:56.809Z,8.57
2022-09-21T19:00:35.552Z,15.85
2022-09-21T19:03:23.643Z,9.65
2022-09-21T19:06:22.401Z,5.40
2022-09-21T19:08:58.129Z,5.13
2022-09-21T19:11:32.400Z,6.13
2022-09-21T19:14:20.701Z,5.45
2022-09-21T19:17:05.516Z,7.00
2022-09-21T19:19:44.199Z,7.00
2022-09-21T19:22:24.726Z,7.20
2022-09-21T19:25:15.720Z,6.55
2022-09-21T19:28:05.661Z,7.22
2022-09-21T19:30:33.793Z,7.10
2022-09-21T19:33:32.400Z,7.57
2022-09-21T19:36:05.533Z,6.22
2022-09-21T19:38:34.408Z,6.75
2022-09-21T19:41:41.008Z,7.00
2022-09-21T19:44:29.912Z,7.38
2022-09-21T19:47:18.497Z,7.75
2022-09-21T19:49:56.629Z,7.13
2022-09-21T19:52:34.723Z,8.20
2022-09-21T19:55:21.261Z,7.78
2022-09-21T19:58:07.130Z,8.10
2022-09-21T20:00:34.402Z,8.10
2022-09-21T20:03:07.560Z,7.43
2022-09-21T20:05:57.325Z,7.40
2022-09-21T20:08:42.290Z,7.80
2022-09-21T20:11:20.523Z,7.63
2022-09-21T20:14:14.881Z,15.52
2022-09-21T20:16:57.289Z,8.57
2022-09-21T20:19:42.749Z,7.50
2022-09-21T20:22:16.044Z,7.63
2022-09-21T20:24:49.468Z,8.35
2022-09-21T20:27:34.865Z,8.13
2022-09-21T20:30:03.838Z,7.85
2022-09-21T20:32:31.959Z,8.70
2022-09-21T20:34:59.239Z,8.40
2022-09-21T20:37:27.401Z,9.05
2022-09-21T20:39:54.708Z,7.68
2022-09-21T20:42:25.676Z,8.73
2022-09-21T20:44:54.064Z,10.07
2022-09-21T20:47:21.287Z,7.35
2022-09-21T20:49:49.423Z,8.18
2022-09-21T20:52:17.530Z,7.85
2022-09-21T20:54:49.052Z,9.10
2022-09-21T20:57:21.057Z,6.97
2022-09-21T20:59:48.433Z,8.18
2022-09-21T21:02:16.860Z,6.70
2022-09-21T21:04:45.115Z,6.50
2022-09-21T21:07:12.939Z,7.05
2022-09-21T22:24:10.803Z,8.32
2022-09-21T22:26:41.165Z,7.70
2022-09-21T22:29:10.527Z,8.40
2022-09-21T22:31:43.561Z,7.40
2022-09-21T22:34:12.718Z,6.93
2022-09-21T22:36:39.875Z,9.30
2022-09-21T22:39:08.433Z,6.55
2022-09-21T22:41:38.330Z,7.22
2022-09-21T22:44:05.877Z,6.75
2022-09-21T22:46:33.982Z,5.30
2022-09-21T22:49:01.129Z,6.05
2022-09-21T22:51:29.542Z,7.22
2022-09-21T22:53:58.203Z,7.03
2022-09-21T22:56:31.033Z,9.73
2022-09-21T22:59:00.353Z,8.15
2022-09-21T23:01:29.906Z,6.80
2022-09-21T23:04:05.670Z,7.88
2022-09-21T23:06:35.075Z,7.10
2022-09-21T23:09:05.401Z,10.27
2022-09-21T23:11:37.618Z,8.40
2022-09-21T23:14:04.921Z,8.20
2022-09-21T23:16:32.235Z,9.52
2022-09-21T23:18:59.772Z,9.13
2022-09-21T23:21:28.893Z,9.30
2022-09-21T23:24:00.042Z,9.00
2022-09-21T23:26:28.695Z,9.43
2022-09-21T23:28:58.258Z,8.70
2022-09-21T23:31:26.828Z,9.57
2022-09-21T23:33:56.135Z,8.35
2022-09-21T23:36:27.963Z,9.03
2022-09-21T23:38:58.582Z,8.73
2022-09-21T23:41:32.124Z,9.10
2022-09-21T23:43:59.525Z,8.88
2022-09-21T23:46:29.776Z,8.82
2022-09-21T23:48:57.659Z,8.88
2022-09-21T23:51:25.207Z,10.23
2022-09-21T23:53:52.449Z,9.40
2022-09-21T23:56:21.145Z,9.45
2022-09-21T23:58:49.426Z,9.23
